sensor_id;sensor_type;location;lat;lon;timestamp;P1;durP1;ratioP1;P2;durP2;ratioP2
17953;SDS011;9102;53.548;9.926;2023-09-30T00:01:57;13.02;;;3.53;;
17953;SDS011;9102;53.548;9.926;2023-09-30T00:04:24;15.38;;;3.70;;
17953;SDS011;9102;53.548;9.926;2023-09-30T00:06:52;16.38;;;4.28;;
17953;SDS011;9102;53.548;9.926;2023-09-30T00:09:20;16.67;;;3.70;;
17953;SDS011;9102;53.548;9.926;2023-09-30T00:11:47;15.43;;;3.35;;
17953;SDS011;9102;53.548;9.926;2023-09-30T00:14:14;18.77;;;3.20;;
17953;SDS011;9102;53.548;9.926;2023-09-30T00:16:42;14.43;;;3.72;;
17953;SDS011;9102;53.548;9.926;2023-09-30T00:19:09;10.07;;;2.78;;
17953;SDS011;9102;53.548;9.926;2023-09-30T00:24:59;17.58;;;3.75;;
17953;SDS011;9102;53.548;9.926;2023-09-30T00:27:26;15.15;;;3.85;;
17953;SDS011;9102;53.548;9.926;2023-09-30T00:29:52;16.13;;;3.40;;
17953;SDS011;9102;53.548;9.926;2023-09-30T00:32:19;11.25;;;3.22;;
17953;SDS011;9102;53.548;9.926;2023-09-30T00:34:46;17.92;;;3.63;;
17953;SDS011;9102;53.548;9.926;2023-09-30T00:37:13;22.48;;;3.88;;
17953;SDS011;9102;53.548;9.926;2023-09-30T00:39:40;17.25;;;4.28;;
17953;SDS011;9102;53.548;9.926;2023-09-30T00:42:08;15.30;;;3.58;;
17953;SDS011;9102;53.548;9.926;2023-09-30T00:44:35;20.63;;;3.95;;
17953;SDS011;9102;53.548;9.926;2023-09-30T00:47:02;16.15;;;3.80;;
17953;SDS011;9102;53.548;9.926;2023-09-30T00:49:29;15.23;;;3.33;;
17953;SDS011;9102;53.548;9.926;2023-09-30T00:51:56;13.77;;;3.53;;
17953;SDS011;9102;53.548;9.926;2023-09-30T00:54:23;13.10;;;3.35;;
17953;SDS011;9102;53.548;9.926;2023-09-30T00:56:52;11.02;;;3.50;;
17953;SDS011;9102;53.548;9.926;2023-09-30T00:59:23;15.90;;;3.63;;
17953;SDS011;9102;53.548;9.926;2023-09-30T01:01:52;13.27;;;3.10;;
17953;SDS011;9102;53.548;9.926;2023-09-30T01:04:22;16.42;;;3.10;;
17953;SDS011;9102;53.548;9.926;2023-09-30T01:06:51;15.43;;;3.45;;
17953;SDS011;9102;53.548;9.926;2023-09-30T01:09:17;15.00;;;3.25;;
17953;SDS011;9102;53.548;9.926;2023-09-30T01:11:45;13.57;;;3.15;;
17953;SDS011;9102;53.548;9.926;2023-09-30T01:14:27;19.95;;;4.82;;
17953;SDS011;9102;53.548;9.926;2023-09-30T01:16:54;13.38;;;3.85;;
17953;SDS011;9102;53.548;9.926;2023-09-30T01:19:21;21.80;;;4.03;;
17953;SDS011;9102;53.548;9.926;2023-09-30T01:21:52;20.33;;;3.85;;
17953;SDS011;9102;53.548;9.926;2023-09-30T01:24:21;15.57;;;3.67;;
17953;SDS011;9102;53.548;9.926;2023-09-30T01:26:48;17.42;;;2.92;;
17953;SDS011;9102;53.548;9.926;2023-09-30T01:29:15;18.48;;;3.88;;
17953;SDS011;9102;53.548;9.926;2023-09-30T01:31:42;18.27;;;3.35;;
17953;SDS011;9102;53.548;9.926;2023-09-30T01:34:12;18.27;;;3.35;;
17953;SDS011;9102;53.548;9.926;2023-09-30T01:36:40;17.20;;;3.60;;
17953;SDS011;9102;53.548;9.926;2023-09-30T01:39:08;17.92;;;3.92;;
17953;SDS011;9102;53.548;9.926;2023-09-30T01:41:35;21.58;;;3.83;;
17953;SDS011;9102;53.548;9.926;2023-09-30T01:44:02;19.42;;;3.83;;
17953;SDS011;9102;53.548;9.926;2023-09-30T01:49:51;12.38;;;3.55;;
17953;SDS011;9102;53.548;9.926;2023-09-30T01:52:18;15.50;;;3.53;;
17953;SDS011;9102;53.548;9.926;2023-09-30T01:54:46;16.05;;;3.20;;
17953;SDS011;9102;53.548;9.926;2023-09-30T01:57:13;14.05;;;3.53;;
17953;SDS011;9102;53.548;9.926;2023-09-30T01:59:40;17.25;;;3.42;;
17953;SDS011;9102;53.548;9.926;2023-09-30T02:02:07;22.73;;;4.43;;
17953;SDS011;9102;53.548;9.926;2023-09-30T02:04:33;18.08;;;3.90;;
17953;SDS011;9102;53.548;9.926;2023-09-30T02:07:00;20.13;;;3.72;;
17953;SDS011;9102;53.548;9.926;2023-09-30T02:09:27;16.25;;;3.80;;
17953;SDS011;9102;53.548;9.926;2023-09-30T02:11:55;18.08;;;4.45;;
17953;SDS011;9102;53.548;9.926;2023-09-30T02:14:22;21.05;;;3.55;;
17953;SDS011;9102;53.548;9.926;2023-09-30T02:16:49;15.60;;;3.35;;
17953;SDS011;9102;53.548;9.926;2023-09-30T02:19:16;16.40;;;3.70;;
17953;SDS011;9102;53.548;9.926;2023-09-30T02:21:43;19.67;;;4.15;;
17953;SDS011;9102;53.548;9.926;2023-09-30T02:24:10;21.08;;;4.43;;
17953;SDS011;9102;53.548;9.926;2023-09-30T02:29:59;20.60;;;4.88;;
17953;SDS011;9102;53.548;9.926;2023-09-30T02:32:26;15.82;;;3.92;;
17953;SDS011;9102;53.548;9.926;2023-09-30T02:34:53;18.50;;;4.65;;
17953;SDS011;9102;53.548;9.926;2023-09-30T02:37:20;18.70;;;3.97;;
17953;SDS011;9102;53.548;9.926;2023-09-30T02:39:47;14.70;;;3.80;;
17953;SDS011;9102;53.548;9.926;2023-09-30T02:42:13;17.30;;;5.00;;
17953;SDS011;9102;53.548;9.926;2023-09-30T02:44:41;19.35;;;3.95;;
17953;SDS011;9102;53.548;9.926;2023-09-30T02:47:09;13.27;;;4.22;;
17953;SDS011;9102;53.548;9.926;2023-09-30T02:49:36;18.08;;;3.95;;
17953;SDS011;9102;53.548;9.926;2023-09-30T02:52:04;17.83;;;3.95;;
17953;SDS011;9102;53.548;9.926;2023-09-30T02:54:30;15.85;;;4.50;;
17953;SDS011;9102;53.548;9.926;2023-09-30T02:56:57;21.63;;;4.78;;
17953;SDS011;9102;53.548;9.926;2023-09-30T02:59:24;16.77;;;4.03;;
17953;SDS011;9102;53.548;9.926;2023-09-30T03:01:52;14.02;;;3.80;;
17953;SDS011;9102;53.548;9.926;2023-09-30T03:04:20;13.20;;;3.45;;
17953;SDS011;9102;53.548;9.926;2023-09-30T03:06:49;17.10;;;3.88;;
17953;SDS011;9102;53.548;9.926;2023-09-30T03:09:16;15.88;;;4.00;;
17953;SDS011;9102;53.548;9.926;2023-09-30T03:11:45;11.73;;;3.63;;
17953;SDS011;9102;53.548;9.926;2023-09-30T03:14:12;17.42;;;4.10;;
17953;SDS011;9102;53.548;9.926;2023-09-30T03:16:39;14.98;;;4.10;;
17953;SDS011;9102;53.548;9.926;2023-09-30T03:19:09;16.10;;;3.65;;
17953;SDS011;9102;53.548;9.926;2023-09-30T03:21:38;17.65;;;4.75;;
17953;SDS011;9102;53.548;9.926;2023-09-30T03:24:05;25.80;;;5.57;;
17953;SDS011;9102;53.548;9.926;2023-09-30T03:26:33;20.02;;;4.28;;
17953;SDS011;9102;53.548;9.926;2023-09-30T03:29:00;20.85;;;4.25;;
17953;SDS011;9102;53.548;9.926;2023-09-30T03:31:28;21.75;;;4.20;;
17953;SDS011;9102;53.548;9.926;2023-09-30T03:33:55;18.88;;;4.18;;
17953;SDS011;9102;53.548;9.926;2023-09-30T03:36:22;20.75;;;4.80;;
17953;SDS011;9102;53.548;9.926;2023-09-30T03:38:50;17.17;;;3.80;;
17953;SDS011;9102;53.548;9.926;2023-09-30T03:41:19;15.63;;;5.40;;
17953;SDS011;9102;53.548;9.926;2023-09-30T03:43:46;21.50;;;4.93;;
17953;SDS011;9102;53.548;9.926;2023-09-30T03:46:14;19.88;;;5.75;;
17953;SDS011;9102;53.548;9.926;2023-09-30T03:48:41;17.67;;;4.72;;
17953;SDS011;9102;53.548;9.926;2023-09-30T03:51:10;19.80;;;4.38;;
17953;SDS011;9102;53.548;9.926;2023-09-30T03:53:38;20.38;;;4.40;;
17953;SDS011;9102;53.548;9.926;2023-09-30T03:56:07;18.50;;;5.05;;
17953;SDS011;9102;53.548;9.926;2023-09-30T03:58:36;17.58;;;4.30;;
17953;SDS011;9102;53.548;9.926;2023-09-30T04:01:03;16.55;;;4.97;;
17953;SDS011;9102;53.548;9.926;2023-09-30T04:03:30;22.50;;;4.50;;
17953;SDS011;9102;53.548;9.926;2023-09-30T04:05:58;21.90;;;4.78;;
17953;SDS011;9102;53.548;9.926;2023-09-30T04:08:25;15.70;;;4.38;;
17953;SDS011;9102;53.548;9.926;2023-09-30T04:10:52;21.50;;;5.35;;
17953;SDS011;9102;53.548;9.926;2023-09-30T04:13:20;16.35;;;4.70;;
17953;SDS011;9102;53.548;9.926;2023-09-30T04:15:47;17.58;;;6.03;;
17953;SDS011;9102;53.548;9.926;2023-09-30T04:18:14;24.50;;;5.35;;
17953;SDS011;9102;53.548;9.926;2023-09-30T04:20:41;17.55;;;5.30;;
17953;SDS011;9102;53.548;9.926;2023-09-30T04:23:10;20.05;;;5.90;;
17953;SDS011;9102;53.548;9.926;2023-09-30T04:25:37;17.58;;;6.07;;
17953;SDS011;9102;53.548;9.926;2023-09-30T04:28:05;15.68;;;5.97;;
17953;SDS011;9102;53.548;9.926;2023-09-30T04:30:34;20.52;;;5.93;;
17953;SDS011;9102;53.548;9.926;2023-09-30T04:33:02;14.93;;;4.97;;
17953;SDS011;9102;53.548;9.926;2023-09-30T04:35:31;17.38;;;5.10;;
17953;SDS011;9102;53.548;9.926;2023-09-30T04:38:00;18.20;;;5.78;;
17953;SDS011;9102;53.548;9.926;2023-09-30T04:40:27;19.00;;;4.80;;
17953;SDS011;9102;53.548;9.926;2023-09-30T04:42:54;26.55;;;5.97;;
17953;SDS011;9102;53.548;9.926;2023-09-30T04:48:47;18.95;;;4.72;;
17953;SDS011;9102;53.548;9.926;2023-09-30T04:51:13;16.27;;;5.90;;
17953;SDS011;9102;53.548;9.926;2023-09-30T04:53:43;17.80;;;4.75;;
17953;SDS011;9102;53.548;9.926;2023-09-30T04:56:10;21.60;;;4.72;;
17953;SDS011;9102;53.548;9.926;2023-09-30T04:58:37;20.27;;;5.57;;
17953;SDS011;9102;53.548;9.926;2023-09-30T05:01:03;18.35;;;4.90;;
17953;SDS011;9102;53.548;9.926;2023-09-30T05:03:33;21.15;;;5.32;;
17953;SDS011;9102;53.548;9.926;2023-09-30T05:06:02;21.50;;;5.38;;
17953;SDS011;9102;53.548;9.926;2023-09-30T05:08:29;16.38;;;4.28;;
17953;SDS011;9102;53.548;9.926;2023-09-30T05:10:56;18.10;;;4.72;;
17953;SDS011;9102;53.548;9.926;2023-09-30T05:13:23;22.70;;;5.35;;
17953;SDS011;9102;53.548;9.926;2023-09-30T05:15:50;16.42;;;4.70;;
17953;SDS011;9102;53.548;9.926;2023-09-30T05:18:17;17.33;;;4.65;;
17953;SDS011;9102;53.548;9.926;2023-09-30T05:20:44;15.50;;;4.32;;
17953;SDS011;9102;53.548;9.926;2023-09-30T05:23:12;20.40;;;4.28;;
17953;SDS011;9102;53.548;9.926;2023-09-30T05:25:39;14.82;;;4.60;;
17953;SDS011;9102;53.548;9.926;2023-09-30T05:28:07;15.63;;;4.20;;
17953;SDS011;9102;53.548;9.926;2023-09-30T05:30:35;20.38;;;4.57;;
17953;SDS011;9102;53.548;9.926;2023-09-30T05:33:02;19.17;;;4.60;;
17953;SDS011;9102;53.548;9.926;2023-09-30T05:35:30;20.52;;;4.90;;
17953;SDS011;9102;53.548;9.926;2023-09-30T05:37:57;20.10;;;5.10;;
17953;SDS011;9102;53.548;9.926;2023-09-30T05:40:25;18.80;;;5.07;;
17953;SDS011;9102;53.548;9.926;2023-09-30T05:42:55;13.30;;;4.63;;
17953;SDS011;9102;53.548;9.926;2023-09-30T05:45:23;20.65;;;5.00;;
17953;SDS011;9102;53.548;9.926;2023-09-30T05:47:51;15.10;;;4.40;;
17953;SDS011;9102;53.548;9.926;2023-09-30T05:50:19;19.05;;;5.03;;
17953;SDS011;9102;53.548;9.926;2023-09-30T05:52:49;13.73;;;4.82;;
17953;SDS011;9102;53.548;9.926;2023-09-30T05:55:17;21.90;;;5.85;;
17953;SDS011;9102;53.548;9.926;2023-09-30T05:57:47;19.55;;;4.88;;
17953;SDS011;9102;53.548;9.926;2023-09-30T06:00:14;16.13;;;4.82;;
17953;SDS011;9102;53.548;9.926;2023-09-30T06:02:47;20.88;;;4.65;;
17953;SDS011;9102;53.548;9.926;2023-09-30T06:05:14;18.98;;;4.60;;
17953;SDS011;9102;53.548;9.926;2023-09-30T06:07:43;22.30;;;5.15;;
17953;SDS011;9102;53.548;9.926;2023-09-30T06:10:11;19.13;;;5.25;;
17953;SDS011;9102;53.548;9.926;2023-09-30T06:12:43;18.15;;;5.07;;
17953;SDS011;9102;53.548;9.926;2023-09-30T06:15:12;19.67;;;4.93;;
17953;SDS011;9102;53.548;9.926;2023-09-30T06:17:40;17.95;;;4.55;;
17953;SDS011;9102;53.548;9.926;2023-09-30T06:20:07;17.83;;;4.43;;
17953;SDS011;9102;53.548;9.926;2023-09-30T06:22:41;14.90;;;4.28;;
17953;SDS011;9102;53.548;9.926;2023-09-30T06:25:08;15.98;;;4.90;;
17953;SDS011;9102;53.548;9.926;2023-09-30T06:27:36;19.25;;;5.50;;
17953;SDS011;9102;53.548;9.926;2023-09-30T06:30:03;16.55;;;5.13;;
17953;SDS011;9102;53.548;9.926;2023-09-30T06:32:32;17.48;;;4.85;;
17953;SDS011;9102;53.548;9.926;2023-09-30T06:35:00;12.15;;;4.53;;
17953;SDS011;9102;53.548;9.926;2023-09-30T06:37:27;21.38;;;5.10;;
17953;SDS011;9102;53.548;9.926;2023-09-30T06:39:55;18.75;;;4.95;;
17953;SDS011;9102;53.548;9.926;2023-09-30T06:42:22;21.38;;;4.97;;
17953;SDS011;9102;53.548;9.926;2023-09-30T06:44:50;16.05;;;4.63;;
17953;SDS011;9102;53.548;9.926;2023-09-30T06:47:17;14.35;;;4.18;;
17953;SDS011;9102;53.548;9.926;2023-09-30T06:49:47;14.55;;;4.50;;
17953;SDS011;9102;53.548;9.926;2023-09-30T06:52:14;22.17;;;5.45;;
17953;SDS011;9102;53.548;9.926;2023-09-30T06:54:41;12.00;;;3.83;;
17953;SDS011;9102;53.548;9.926;2023-09-30T06:57:08;18.27;;;4.60;;
17953;SDS011;9102;53.548;9.926;2023-09-30T06:59:35;15.20;;;3.85;;
17953;SDS011;9102;53.548;9.926;2023-09-30T07:02:02;15.25;;;4.65;;
17953;SDS011;9102;53.548;9.926;2023-09-30T07:04:29;20.05;;;4.80;;
17953;SDS011;9102;53.548;9.926;2023-09-30T07:06:57;21.85;;;4.43;;
17953;SDS011;9102;53.548;9.926;2023-09-30T07:09:24;15.82;;;5.07;;
17953;SDS011;9102;53.548;9.926;2023-09-30T07:11:51;13.45;;;4.22;;
17953;SDS011;9102;53.548;9.926;2023-09-30T07:14:18;18.95;;;5.43;;
17953;SDS011;9102;53.548;9.926;2023-09-30T07:16:45;13.60;;;4.22;;
17953;SDS011;9102;53.548;9.926;2023-09-30T07:19:12;16.33;;;4.97;;
17953;SDS011;9102;53.548;9.926;2023-09-30T07:21:38;14.73;;;4.50;;
17953;SDS011;9102;53.548;9.926;2023-09-30T07:24:07;14.45;;;4.35;;
17953;SDS011;9102;53.548;9.926;2023-09-30T07:26:34;11.65;;;3.72;;
17953;SDS011;9102;53.548;9.926;2023-09-30T07:29:01;16.60;;;4.72;;
17953;SDS011;9102;53.548;9.926;2023-09-30T07:31:32;14.45;;;4.15;;
17953;SDS011;9102;53.548;9.926;2023-09-30T07:34:01;18.17;;;4.40;;
17953;SDS011;9102;53.548;9.926;2023-09-30T07:36:30;20.27;;;4.57;;
17953;SDS011;9102;53.548;9.926;2023-09-30T07:38:57;15.52;;;4.20;;
17953;SDS011;9102;53.548;9.926;2023-09-30T07:41:27;13.70;;;3.83;;
17953;SDS011;9102;53.548;9.926;2023-09-30T07:43:53;16.67;;;4.18;;
17953;SDS011;9102;53.548;9.926;2023-09-30T07:46:23;12.85;;;3.33;;
17953;SDS011;9102;53.548;9.926;2023-09-30T07:48:56;11.32;;;3.25;;
17953;SDS011;9102;53.548;9.926;2023-09-30T07:51:30;15.20;;;3.75;;
17953;SDS011;9102;53.548;9.926;2023-09-30T07:53:57;15.90;;;3.95;;
17953;SDS011;9102;53.548;9.926;2023-09-30T07:56:27;13.00;;;3.42;;
17953;SDS011;9102;53.548;9.926;2023-09-30T07:58:54;11.82;;;3.28;;
17953;SDS011;9102;53.548;9.926;2023-09-30T08:01:21;16.33;;;3.67;;
17953;SDS011;9102;53.548;9.926;2023-09-30T08:03:48;11.23;;;3.65;;
17953;SDS011;9102;53.548;9.926;2023-09-30T08:06:15;14.38;;;3.25;;
17953;SDS011;9102;53.548;9.926;2023-09-30T08:08:42;15.82;;;3.42;;
17953;SDS011;9102;53.548;9.926;2023-09-30T08:11:09;14.25;;;3.78;;
17953;SDS011;9102;53.548;9.926;2023-09-30T08:13:38;7.60;;;2.85;;
17953;SDS011;9102;53.548;9.926;2023-09-30T08:16:05;18.40;;;3.92;;
17953;SDS011;9102;53.548;9.926;2023-09-30T08:18:35;16.25;;;3.20;;
17953;SDS011;9102;53.548;9.926;2023-09-30T08:21:02;13.43;;;3.58;;
17953;SDS011;9102;53.548;9.926;2023-09-30T08:23:30;13.20;;;2.67;;
17953;SDS011;9102;53.548;9.926;2023-09-30T08:25:57;15.50;;;3.22;;
17953;SDS011;9102;53.548;9.926;2023-09-30T08:28:25;9.55;;;2.83;;
17953;SDS011;9102;53.548;9.926;2023-09-30T08:30:53;14.52;;;4.00;;
17953;SDS011;9102;53.548;9.926;2023-09-30T08:33:24;13.38;;;3.15;;
17953;SDS011;9102;53.548;9.926;2023-09-30T08:35:52;10.50;;;3.50;;
17953;SDS011;9102;53.548;9.926;2023-09-30T08:38:20;11.32;;;2.83;;
17953;SDS011;9102;53.548;9.926;2023-09-30T08:40:47;11.00;;;2.50;;
17953;SDS011;9102;53.548;9.926;2023-09-30T08:43:17;15.15;;;2.85;;
17953;SDS011;9102;53.548;9.926;2023-09-30T08:45:49;10.88;;;2.03;;
17953;SDS011;9102;53.548;9.926;2023-09-30T08:48:21;11.68;;;2.92;;
17953;SDS011;9102;53.548;9.926;2023-09-30T08:50:51;13.00;;;2.88;;
17953;SDS011;9102;53.548;9.926;2023-09-30T08:53:20;16.35;;;3.08;;
17953;SDS011;9102;53.548;9.926;2023-09-30T08:55:48;12.05;;;2.70;;
17953;SDS011;9102;53.548;9.926;2023-09-30T08:58:19;9.20;;;2.50;;
17953;SDS011;9102;53.548;9.926;2023-09-30T09:00:49;13.20;;;2.55;;
17953;SDS011;9102;53.548;9.926;2023-09-30T09:03:19;11.10;;;2.47;;
17953;SDS011;9102;53.548;9.926;2023-09-30T09:05:53;8.90;;;2.30;;
17953;SDS011;9102;53.548;9.926;2023-09-30T09:08:21;11.30;;;2.28;;
17953;SDS011;9102;53.548;9.926;2023-09-30T09:10:58;13.63;;;2.72;;
17953;SDS011;9102;53.548;9.926;2023-09-30T09:13:28;10.32;;;2.42;;
17953;SDS011;9102;53.548;9.926;2023-09-30T09:16:10;20.13;;;2.42;;
17953;SDS011;9102;53.548;9.926;2023-09-30T09:18:39;15.30;;;2.85;;
17953;SDS011;9102;53.548;9.926;2023-09-30T09:21:09;9.00;;;2.15;;
17953;SDS011;9102;53.548;9.926;2023-09-30T09:23:40;12.65;;;2.20;;
17953;SDS011;9102;53.548;9.926;2023-09-30T09:26:09;15.60;;;2.35;;
17953;SDS011;9102;53.548;9.926;2023-09-30T09:28:36;10.23;;;2.17;;
17953;SDS011;9102;53.548;9.926;2023-09-30T09:31:20;17.08;;;3.15;;
17953;SDS011;9102;53.548;9.926;2023-09-30T09:33:49;14.65;;;2.80;;
17953;SDS011;9102;53.548;9.926;2023-09-30T09:36:17;12.88;;;2.45;;
17953;SDS011;9102;53.548;9.926;2023-09-30T09:38:44;11.40;;;2.47;;
17953;SDS011;9102;53.548;9.926;2023-09-30T09:41:14;10.00;;;2.15;;
17953;SDS011;9102;53.548;9.926;2023-09-30T09:43:41;24.42;;;6.32;;
17953;SDS011;9102;53.548;9.926;2023-09-30T09:46:08;15.55;;;2.97;;
17953;SDS011;9102;53.548;9.926;2023-09-30T09:48:36;12.70;;;2.10;;
17953;SDS011;9102;53.548;9.926;2023-09-30T09:51:05;11.10;;;2.33;;
17953;SDS011;9102;53.548;9.926;2023-09-30T09:53:34;10.57;;;2.13;;
17953;SDS011;9102;53.548;9.926;2023-09-30T09:56:01;12.60;;;1.83;;
17953;SDS011;9102;53.548;9.926;2023-09-30T09:58:29;10.93;;;2.38;;
17953;SDS011;9102;53.548;9.926;2023-09-30T10:01:07;13.73;;;2.47;;
17953;SDS011;9102;53.548;9.926;2023-09-30T10:03:37;11.02;;;1.83;;
17953;SDS011;9102;53.548;9.926;2023-09-30T10:06:06;8.93;;;2.08;;
17953;SDS011;9102;53.548;9.926;2023-09-30T10:08:35;12.45;;;2.28;;
17953;SDS011;9102;53.548;9.926;2023-09-30T10:11:05;15.27;;;2.47;;
17953;SDS011;9102;53.548;9.926;2023-09-30T10:19:15;9.20;;;2.00;;
17953;SDS011;9102;53.548;9.926;2023-09-30T10:24:50;10.98;;;2.20;;
17953;SDS011;9102;53.548;9.926;2023-09-30T10:27:31;7.50;;;1.92;;
17953;SDS011;9102;53.548;9.926;2023-09-30T10:30:11;11.52;;;2.22;;
17953;SDS011;9102;53.548;9.926;2023-09-30T10:35:46;12.23;;;2.35;;
17953;SDS011;9102;53.548;9.926;2023-09-30T10:41:07;14.57;;;2.17;;
17953;SDS011;9102;53.548;9.926;2023-09-30T10:43:37;10.95;;;2.30;;
17953;SDS011;9102;53.548;9.926;2023-09-30T10:48:56;14.27;;;2.38;;
17953;SDS011;9102;53.548;9.926;2023-09-30T10:51:23;9.77;;;1.90;;
17953;SDS011;9102;53.548;9.926;2023-09-30T10:53:51;10.50;;;1.67;;
17953;SDS011;9102;53.548;9.926;2023-09-30T10:56:22;8.82;;;1.85;;
17953;SDS011;9102;53.548;9.926;2023-09-30T10:58:51;12.25;;;2.15;;
17953;SDS011;9102;53.548;9.926;2023-09-30T11:01:19;9.60;;;1.75;;
17953;SDS011;9102;53.548;9.926;2023-09-30T11:03:47;6.82;;;1.50;;
17953;SDS011;9102;53.548;9.926;2023-09-30T11:09:39;12.15;;;1.60;;
17953;SDS011;9102;53.548;9.926;2023-09-30T11:12:12;13.88;;;2.28;;
17953;SDS011;9102;53.548;9.926;2023-09-30T11:14:40;4.90;;;1.50;;
17953;SDS011;9102;53.548;9.926;2023-09-30T11:17:07;7.32;;;1.40;;
17953;SDS011;9102;53.548;9.926;2023-09-30T11:19:35;11.85;;;1.67;;
17953;SDS011;9102;53.548;9.926;2023-09-30T11:22:03;8.18;;;1.90;;
17953;SDS011;9102;53.548;9.926;2023-09-30T11:24:30;8.20;;;1.90;;
17953;SDS011;9102;53.548;9.926;2023-09-30T11:27:05;10.90;;;1.60;;
17953;SDS011;9102;53.548;9.926;2023-09-30T11:29:32;9.13;;;1.42;;
17953;SDS011;9102;53.548;9.926;2023-09-30T11:31:59;13.15;;;1.80;;
17953;SDS011;9102;53.548;9.926;2023-09-30T11:34:31;9.45;;;1.90;;
17953;SDS011;9102;53.548;9.926;2023-09-30T11:37:00;9.07;;;1.70;;
17953;SDS011;9102;53.548;9.926;2023-09-30T11:39:28;7.80;;;1.40;;
17953;SDS011;9102;53.548;9.926;2023-09-30T11:41:57;9.80;;;1.42;;
17953;SDS011;9102;53.548;9.926;2023-09-30T11:44:26;5.70;;;1.45;;
17953;SDS011;9102;53.548;9.926;2023-09-30T11:46:54;8.23;;;1.65;;
17953;SDS011;9102;53.548;9.926;2023-09-30T11:49:26;8.70;;;1.88;;
17953;SDS011;9102;53.548;9.926;2023-09-30T11:51:54;7.40;;;1.45;;
17953;SDS011;9102;53.548;9.926;2023-09-30T11:54:22;10.75;;;1.95;;
17953;SDS011;9102;53.548;9.926;2023-09-30T11:56:49;12.93;;;1.50;;
17953;SDS011;9102;53.548;9.926;2023-09-30T11:59:18;8.70;;;1.95;;
17953;SDS011;9102;53.548;9.926;2023-09-30T12:01:47;9.65;;;1.40;;
17953;SDS011;9102;53.548;9.926;2023-09-30T12:04:14;7.28;;;1.38;;
17953;SDS011;9102;53.548;9.926;2023-09-30T12:06:44;7.82;;;1.52;;
17953;SDS011;9102;53.548;9.926;2023-09-30T12:09:11;11.70;;;2.05;;
17953;SDS011;9102;53.548;9.926;2023-09-30T12:11:39;13.48;;;1.73;;
17953;SDS011;9102;53.548;9.926;2023-09-30T12:14:08;9.85;;;1.98;;
17953;SDS011;9102;53.548;9.926;2023-09-30T12:16:37;7.55;;;1.50;;
17953;SDS011;9102;53.548;9.926;2023-09-30T12:19:04;7.78;;;1.50;;
17953;SDS011;9102;53.548;9.926;2023-09-30T12:21:32;13.30;;;1.98;;
17953;SDS011;9102;53.548;9.926;2023-09-30T12:23:59;9.82;;;1.45;;
17953;SDS011;9102;53.548;9.926;2023-09-30T12:26:26;9.60;;;1.45;;
17953;SDS011;9102;53.548;9.926;2023-09-30T12:28:53;6.82;;;1.35;;
17953;SDS011;9102;53.548;9.926;2023-09-30T12:31:20;11.77;;;1.73;;
17953;SDS011;9102;53.548;9.926;2023-09-30T12:33:49;7.82;;;1.85;;
17953;SDS011;9102;53.548;9.926;2023-09-30T12:36:17;8.00;;;1.50;;
17953;SDS011;9102;53.548;9.926;2023-09-30T12:38:44;5.75;;;1.52;;
17953;SDS011;9102;53.548;9.926;2023-09-30T12:41:12;6.57;;;1.40;;
17953;SDS011;9102;53.548;9.926;2023-09-30T12:43:40;8.00;;;1.77;;
17953;SDS011;9102;53.548;9.926;2023-09-30T12:46:07;7.88;;;1.30;;
17953;SDS011;9102;53.548;9.926;2023-09-30T12:48:34;12.40;;;1.58;;
17953;SDS011;9102;53.548;9.926;2023-09-30T12:51:04;4.07;;;1.27;;
17953;SDS011;9102;53.548;9.926;2023-09-30T12:53:32;8.05;;;1.33;;
17953;SDS011;9102;53.548;9.926;2023-09-30T12:55:59;7.35;;;1.55;;
17953;SDS011;9102;53.548;9.926;2023-09-30T12:58:26;5.45;;;1.20;;
17953;SDS011;9102;53.548;9.926;2023-09-30T13:00:53;6.65;;;1.70;;
17953;SDS011;9102;53.548;9.926;2023-09-30T13:03:21;9.68;;;1.77;;
17953;SDS011;9102;53.548;9.926;2023-09-30T13:05:48;7.00;;;1.48;;
17953;SDS011;9102;53.548;9.926;2023-09-30T13:08:17;8.77;;;1.40;;
17953;SDS011;9102;53.548;9.926;2023-09-30T13:10:43;9.25;;;1.80;;
17953;SDS011;9102;53.548;9.926;2023-09-30T13:13:11;11.32;;;1.60;;
17953;SDS011;9102;53.548;9.926;2023-09-30T13:15:38;6.15;;;1.27;;
17953;SDS011;9102;53.548;9.926;2023-09-30T13:18:05;16.70;;;3.88;;
17953;SDS011;9102;53.548;9.926;2023-09-30T13:20:32;10.25;;;1.73;;
17953;SDS011;9102;53.548;9.926;2023-09-30T13:22:59;9.50;;;1.58;;
17953;SDS011;9102;53.548;9.926;2023-09-30T13:25:29;6.55;;;1.27;;
17953;SDS011;9102;53.548;9.926;2023-09-30T13:27:56;9.30;;;1.67;;
17953;SDS011;9102;53.548;9.926;2023-09-30T13:30:23;6.05;;;1.50;;
17953;SDS011;9102;53.548;9.926;2023-09-30T13:32:50;8.18;;;1.33;;
17953;SDS011;9102;53.548;9.926;2023-09-30T13:35:16;7.93;;;1.70;;
17953;SDS011;9102;53.548;9.926;2023-09-30T13:37:44;6.30;;;1.48;;
17953;SDS011;9102;53.548;9.926;2023-09-30T13:40:11;9.65;;;1.80;;
17953;SDS011;9102;53.548;9.926;2023-09-30T13:42:40;7.28;;;1.67;;
17953;SDS011;9102;53.548;9.926;2023-09-30T13:45:07;5.13;;;1.40;;
17953;SDS011;9102;53.548;9.926;2023-09-30T13:47:35;9.68;;;1.58;;
17953;SDS011;9102;53.548;9.926;2023-09-30T13:50:02;11.85;;;1.50;;
17953;SDS011;9102;53.548;9.926;2023-09-30T13:52:31;8.75;;;1.75;;
17953;SDS011;9102;53.548;9.926;2023-09-30T13:54:59;10.00;;;1.73;;
17953;SDS011;9102;53.548;9.926;2023-09-30T13:57:26;7.55;;;1.77;;
17953;SDS011;9102;53.548;9.926;2023-09-30T13:59:54;8.13;;;1.77;;
17953;SDS011;9102;53.548;9.926;2023-09-30T14:02:21;9.68;;;2.45;;
17953;SDS011;9102;53.548;9.926;2023-09-30T14:04:48;6.80;;;1.25;;
17953;SDS011;9102;53.548;9.926;2023-09-30T14:07:14;5.50;;;1.42;;
17953;SDS011;9102;53.548;9.926;2023-09-30T14:09:43;9.38;;;1.83;;
17953;SDS011;9102;53.548;9.926;2023-09-30T14:12:10;8.23;;;1.73;;
17953;SDS011;9102;53.548;9.926;2023-09-30T14:14:37;10.18;;;1.45;;
17953;SDS011;9102;53.548;9.926;2023-09-30T14:17:05;9.50;;;1.27;;
17953;SDS011;9102;53.548;9.926;2023-09-30T14:19:35;6.80;;;1.55;;
17953;SDS011;9102;53.548;9.926;2023-09-30T14:22:03;9.93;;;1.55;;
17953;SDS011;9102;53.548;9.926;2023-09-30T14:24:31;5.97;;;1.70;;
17953;SDS011;9102;53.548;9.926;2023-09-30T14:26:58;9.23;;;1.60;;
17953;SDS011;9102;53.548;9.926;2023-09-30T14:29:25;7.20;;;1.50;;
17953;SDS011;9102;53.548;9.926;2023-09-30T14:31:53;7.13;;;1.25;;
17953;SDS011;9102;53.548;9.926;2023-09-30T14:34:21;5.28;;;1.27;;
17953;SDS011;9102;53.548;9.926;2023-09-30T14:36:48;8.85;;;1.88;;
17953;SDS011;9102;53.548;9.926;2023-09-30T14:39:15;14.40;;;1.52;;
17953;SDS011;9102;53.548;9.926;2023-09-30T14:41:42;9.00;;;1.70;;
17953;SDS011;9102;53.548;9.926;2023-09-30T14:44:09;7.47;;;1.40;;
17953;SDS011;9102;53.548;9.926;2023-09-30T14:46:37;7.90;;;1.88;;
17953;SDS011;9102;53.548;9.926;2023-09-30T14:49:04;6.05;;;1.48;;
17953;SDS011;9102;53.548;9.926;2023-09-30T14:51:33;9.45;;;1.45;;
17953;SDS011;9102;53.548;9.926;2023-09-30T14:54:00;3.85;;;1.20;;
17953;SDS011;9102;53.548;9.926;2023-09-30T14:56:28;8.93;;;1.70;;
17953;SDS011;9102;53.548;9.926;2023-09-30T14:58:55;8.80;;;1.88;;
17953;SDS011;9102;53.548;9.926;2023-09-30T15:01:22;5.15;;;1.20;;
17953;SDS011;9102;53.548;9.926;2023-09-30T15:03:49;4.70;;;1.50;;
17953;SDS011;9102;53.548;9.926;2023-09-30T15:06:16;10.18;;;1.98;;
17953;SDS011;9102;53.548;9.926;2023-09-30T15:08:44;11.13;;;1.80;;
17953;SDS011;9102;53.548;9.926;2023-09-30T15:11:14;8.35;;;1.95;;
17953;SDS011;9102;53.548;9.926;2023-09-30T15:13:41;6.50;;;1.80;;
17953;SDS011;9102;53.548;9.926;2023-09-30T15:16:14;9.00;;;1.80;;
17953;SDS011;9102;53.548;9.926;2023-09-30T15:18:41;10.73;;;2.28;;
17953;SDS011;9102;53.548;9.926;2023-09-30T15:21:08;2.97;;;1.20;;
17953;SDS011;9102;53.548;9.926;2023-09-30T15:23:35;6.95;;;1.63;;
17953;SDS011;9102;53.548;9.926;2023-09-30T15:26:04;6.13;;;1.52;;
17953;SDS011;9102;53.548;9.926;2023-09-30T15:28:31;7.15;;;1.55;;
17953;SDS011;9102;53.548;9.926;2023-09-30T15:30:58;5.85;;;1.50;;